sensor_id;sensor_type;location;lat;lon;timestamp;P1;durP1;ratioP1;P2;durP2;ratioP2
57297;SDS011;43147;50.972;18.210;2024-02-21T00:02:07;25.40;;;6.70;;
57297;SDS011;43147;50.972;18.210;2024-02-21T00:04:33;33.40;;;7.80;;
57297;SDS011;43147;50.972;18.210;2024-02-21T00:06:58;22.10;;;6.50;;
57297;SDS011;43147;50.972;18.210;2024-02-21T00:09:24;20.40;;;6.70;;
57297;SDS011;43147;50.972;18.210;2024-02-21T00:11:49;33.50;;;8.20;;
57297;SDS011;43147;50.972;18.210;2024-02-21T00:14:15;20.90;;;6.30;;
57297;SDS011;43147;50.972;18.210;2024-02-21T00:16:41;31.80;;;6.70;;
57297;SDS011;43147;50.972;18.210;2024-02-21T00:19:07;24.00;;;6.50;;
57297;SDS011;43147;50.972;18.210;2024-02-21T00:21:34;32.30;;;7.00;;
57297;SDS011;43147;50.972;18.210;2024-02-21T00:24:00;22.70;;;8.10;;
57297;SDS011;43147;50.972;18.210;2024-02-21T00:26:25;26.50;;;6.70;;
57297;SDS011;43147;50.972;18.210;2024-02-21T00:28:51;20.40;;;6.70;;
57297;SDS011;43147;50.972;18.210;2024-02-21T00:31:17;37.60;;;6.30;;
57297;SDS011;43147;50.972;18.210;2024-02-21T00:33:42;24.20;;;5.60;;
57297;SDS011;43147;50.972;18.210;2024-02-21T00:36:08;18.40;;;7.00;;
57297;SDS011;43147;50.972;18.210;2024-02-21T00:38:33;26.10;;;6.60;;
57297;SDS011;43147;50.972;18.210;2024-02-21T00:40:58;23.60;;;6.50;;
57297;SDS011;43147;50.972;18.210;2024-02-21T00:43:24;22.60;;;6.40;;
57297;SDS011;43147;50.972;18.210;2024-02-21T00:45:50;18.60;;;5.50;;
57297;SDS011;43147;50.972;18.210;2024-02-21T00:48:16;26.70;;;6.60;;
57297;SDS011;43147;50.972;18.210;2024-02-21T00:50:41;25.30;;;7.60;;
57297;SDS011;43147;50.972;18.210;2024-02-21T00:53:07;18.70;;;6.40;;
57297;SDS011;43147;50.972;18.210;2024-02-21T00:55:32;15.80;;;6.70;;
57297;SDS011;43147;50.972;18.210;2024-02-21T00:57:58;24.10;;;5.90;;
57297;SDS011;43147;50.972;18.210;2024-02-21T01:00:23;25.90;;;7.70;;
57297;SDS011;43147;50.972;18.210;2024-02-21T01:02:49;14.40;;;6.00;;
57297;SDS011;43147;50.972;18.210;2024-02-21T01:05:14;23.70;;;6.20;;
57297;SDS011;43147;50.972;18.210;2024-02-21T01:07:40;16.20;;;5.20;;
57297;SDS011;43147;50.972;18.210;2024-02-21T01:10:08;15.20;;;5.90;;
57297;SDS011;43147;50.972;18.210;2024-02-21T01:12:34;21.50;;;6.20;;
57297;SDS011;43147;50.972;18.210;2024-02-21T01:14:59;24.30;;;6.10;;
57297;SDS011;43147;50.972;18.210;2024-02-21T01:17:25;16.10;;;5.20;;
57297;SDS011;43147;50.972;18.210;2024-02-21T01:19:51;35.90;;;6.20;;
57297;SDS011;43147;50.972;18.210;2024-02-21T01:22:16;28.00;;;5.80;;
57297;SDS011;43147;50.972;18.210;2024-02-21T01:24:43;30.10;;;6.40;;
57297;SDS011;43147;50.972;18.210;2024-02-21T01:27:08;24.90;;;4.90;;
57297;SDS011;43147;50.972;18.210;2024-02-21T01:29:34;17.70;;;5.40;;
57297;SDS011;43147;50.972;18.210;2024-02-21T01:32:00;22.70;;;5.50;;
57297;SDS011;43147;50.972;18.210;2024-02-21T01:34:25;18.60;;;5.20;;
57297;SDS011;43147;50.972;18.210;2024-02-21T01:36:51;25.50;;;5.50;;
57297;SDS011;43147;50.972;18.210;2024-02-21T01:39:17;21.30;;;5.20;;
57297;SDS011;43147;50.972;18.210;2024-02-21T01:41:43;13.50;;;5.30;;
57297;SDS011;43147;50.972;18.210;2024-02-21T01:44:08;20.90;;;5.20;;
57297;SDS011;43147;50.972;18.210;2024-02-21T01:46:34;21.30;;;5.20;;
57297;SDS011;43147;50.972;18.210;2024-02-21T01:49:00;23.30;;;6.30;;
57297;SDS011;43147;50.972;18.210;2024-02-21T01:51:26;14.70;;;5.00;;
57297;SDS011;43147;50.972;18.210;2024-02-21T01:53:51;18.70;;;6.00;;
57297;SDS011;43147;50.972;18.210;2024-02-21T01:56:19;28.90;;;5.90;;
57297;SDS011;43147;50.972;18.210;2024-02-21T01:58:45;19.50;;;6.00;;
57297;SDS011;43147;50.972;18.210;2024-02-21T02:01:11;26.00;;;5.90;;
57297;SDS011;43147;50.972;18.210;2024-02-21T02:03:37;24.60;;;7.10;;
57297;SDS011;43147;50.972;18.210;2024-02-21T02:06:04;24.70;;;5.90;;
57297;SDS011;43147;50.972;18.210;2024-02-21T02:08:30;21.60;;;6.70;;
57297;SDS011;43147;50.972;18.210;2024-02-21T02:10:57;27.80;;;7.10;;
57297;SDS011;43147;50.972;18.210;2024-02-21T02:13:22;26.00;;;6.20;;
57297;SDS011;43147;50.972;18.210;2024-02-21T02:15:48;28.30;;;7.70;;
57297;SDS011;43147;50.972;18.210;2024-02-21T02:18:17;26.00;;;8.20;;
57297;SDS011;43147;50.972;18.210;2024-02-21T02:20:45;26.40;;;7.60;;
57297;SDS011;43147;50.972;18.210;2024-02-21T02:23:11;33.40;;;6.30;;
57297;SDS011;43147;50.972;18.210;2024-02-21T02:25:38;25.60;;;7.30;;
57297;SDS011;43147;50.972;18.210;2024-02-21T02:28:05;22.80;;;8.60;;
57297;SDS011;43147;50.972;18.210;2024-02-21T02:30:35;21.70;;;8.30;;
57297;SDS011;43147;50.972;18.210;2024-02-21T02:33:02;22.70;;;8.90;;
57297;SDS011;43147;50.972;18.210;2024-02-21T02:35:28;26.70;;;8.20;;
57297;SDS011;43147;50.972;18.210;2024-02-21T02:37:54;44.10;;;11.60;;
57297;SDS011;43147;50.972;18.210;2024-02-21T02:40:20;210.70;;;42.40;;
57297;SDS011;43147;50.972;18.210;2024-02-21T02:42:45;283.70;;;59.70;;
57297;SDS011;43147;50.972;18.210;2024-02-21T02:45:11;128.70;;;29.70;;
57297;SDS011;43147;50.972;18.210;2024-02-21T02:47:38;226.70;;;53.90;;
57297;SDS011;43147;50.972;18.210;2024-02-21T02:50:05;432.70;;;107.30;;
57297;SDS011;43147;50.972;18.210;2024-02-21T02:52:31;159.20;;;41.30;;
57297;SDS011;43147;50.972;18.210;2024-02-21T02:54:57;199.10;;;51.20;;
57297;SDS011;43147;50.972;18.210;2024-02-21T02:57:23;171.80;;;49.50;;
57297;SDS011;43147;50.972;18.210;2024-02-21T02:59:48;78.80;;;20.60;;
57297;SDS011;43147;50.972;18.210;2024-02-21T03:02:14;32.80;;;9.30;;
57297;SDS011;43147;50.972;18.210;2024-02-21T03:04:40;30.80;;;6.90;;
57297;SDS011;43147;50.972;18.210;2024-02-21T03:07:05;29.10;;;7.10;;
57297;SDS011;43147;50.972;18.210;2024-02-21T03:09:31;24.30;;;9.10;;
57297;SDS011;43147;50.972;18.210;2024-02-21T03:11:57;19.50;;;6.70;;
57297;SDS011;43147;50.972;18.210;2024-02-21T03:14:31;87.30;;;17.70;;
57297;SDS011;43147;50.972;18.210;2024-02-21T03:17:00;120.40;;;24.40;;
57297;SDS011;43147;50.972;18.210;2024-02-21T03:19:26;159.60;;;31.30;;
57297;SDS011;43147;50.972;18.210;2024-02-21T03:21:52;84.70;;;21.60;;
57297;SDS011;43147;50.972;18.210;2024-02-21T03:24:21;51.50;;;13.50;;
57297;SDS011;43147;50.972;18.210;2024-02-21T03:26:47;28.00;;;9.20;;
57297;SDS011;43147;50.972;18.210;2024-02-21T03:29:14;39.60;;;12.10;;
57297;SDS011;43147;50.972;18.210;2024-02-21T03:31:40;32.80;;;12.10;;
57297;SDS011;43147;50.972;18.210;2024-02-21T03:34:06;21.10;;;9.30;;
57297;SDS011;43147;50.972;18.210;2024-02-21T03:36:32;21.70;;;7.30;;
57297;SDS011;43147;50.972;18.210;2024-02-21T03:38:58;23.60;;;6.20;;
57297;SDS011;43147;50.972;18.210;2024-02-21T03:41:24;56.70;;;13.00;;
57297;SDS011;43147;50.972;18.210;2024-02-21T03:43:49;45.90;;;14.00;;
57297;SDS011;43147;50.972;18.210;2024-02-21T03:46:15;197.90;;;38.90;;
57297;SDS011;43147;50.972;18.210;2024-02-21T03:48:40;44.30;;;14.10;;
57297;SDS011;43147;50.972;18.210;2024-02-21T03:51:06;29.80;;;8.40;;
57297;SDS011;43147;50.972;18.210;2024-02-21T03:53:32;35.00;;;9.40;;
57297;SDS011;43147;50.972;18.210;2024-02-21T03:56:00;40.50;;;13.80;;
57297;SDS011;43147;50.972;18.210;2024-02-21T03:58:28;39.30;;;12.40;;
57297;SDS011;43147;50.972;18.210;2024-02-21T04:00:54;24.90;;;8.80;;
57297;SDS011;43147;50.972;18.210;2024-02-21T04:03:19;21.90;;;7.40;;
57297;SDS011;43147;50.972;18.210;2024-02-21T04:05:45;24.70;;;6.30;;
57297;SDS011;43147;50.972;18.210;2024-02-21T04:08:11;25.70;;;10.80;;
57297;SDS011;43147;50.972;18.210;2024-02-21T04:10:36;37.60;;;10.90;;
57297;SDS011;43147;50.972;18.210;2024-02-21T04:13:02;30.40;;;8.80;;
57297;SDS011;43147;50.972;18.210;2024-02-21T04:15:29;34.40;;;12.30;;
57297;SDS011;43147;50.972;18.210;2024-02-21T04:17:54;21.30;;;8.50;;
57297;SDS011;43147;50.972;18.210;2024-02-21T04:20:20;37.60;;;8.10;;
57297;SDS011;43147;50.972;18.210;2024-02-21T04:22:45;20.30;;;7.00;;
57297;SDS011;43147;50.972;18.210;2024-02-21T04:25:11;23.10;;;9.80;;
57297;SDS011;43147;50.972;18.210;2024-02-21T04:27:41;18.80;;;7.80;;
57297;SDS011;43147;50.972;18.210;2024-02-21T04:30:07;63.40;;;17.80;;
57297;SDS011;43147;50.972;18.210;2024-02-21T04:32:33;305.80;;;63.60;;
57297;SDS011;43147;50.972;18.210;2024-02-21T04:34:59;183.40;;;43.00;;
57297;SDS011;43147;50.972;18.210;2024-02-21T04:37:24;273.50;;;59.40;;
57297;SDS011;43147;50.972;18.210;2024-02-21T04:39:50;104.20;;;26.90;;
57297;SDS011;43147;50.972;18.210;2024-02-21T04:42:16;229.20;;;50.70;;
57297;SDS011;43147;50.972;18.210;2024-02-21T04:44:42;214.50;;;47.40;;
57297;SDS011;43147;50.972;18.210;2024-02-21T04:47:07;105.90;;;27.40;;
57297;SDS011;43147;50.972;18.210;2024-02-21T04:49:33;24.20;;;10.10;;
57297;SDS011;43147;50.972;18.210;2024-02-21T04:51:59;13.40;;;7.40;;
57297;SDS011;43147;50.972;18.210;2024-02-21T04:54:25;23.90;;;8.60;;
57297;SDS011;43147;50.972;18.210;2024-02-21T04:56:51;20.90;;;6.70;;
57297;SDS011;43147;50.972;18.210;2024-02-21T04:59:17;28.60;;;9.50;;
57297;SDS011;43147;50.972;18.210;2024-02-21T05:01:42;23.10;;;8.20;;
57297;SDS011;43147;50.972;18.210;2024-02-21T05:04:08;24.70;;;6.80;;
57297;SDS011;43147;50.972;18.210;2024-02-21T05:06:40;20.30;;;7.80;;
57297;SDS011;43147;50.972;18.210;2024-02-21T05:09:09;22.90;;;7.30;;
57297;SDS011;43147;50.972;18.210;2024-02-21T05:11:35;15.90;;;6.10;;
57297;SDS011;43147;50.972;18.210;2024-02-21T05:14:01;31.80;;;8.30;;
57297;SDS011;43147;50.972;18.210;2024-02-21T05:16:28;208.80;;;46.80;;
57297;SDS011;43147;50.972;18.210;2024-02-21T05:18:53;159.40;;;40.00;;
57297;SDS011;43147;50.972;18.210;2024-02-21T05:21:19;218.30;;;54.70;;
57297;SDS011;43147;50.972;18.210;2024-02-21T05:23:44;254.60;;;58.40;;
57297;SDS011;43147;50.972;18.210;2024-02-21T05:26:10;81.90;;;27.80;;
57297;SDS011;43147;50.972;18.210;2024-02-21T05:28:35;39.50;;;13.80;;
57297;SDS011;43147;50.972;18.210;2024-02-21T05:31:01;23.10;;;10.10;;
57297;SDS011;43147;50.972;18.210;2024-02-21T05:33:26;28.00;;;9.80;;
57297;SDS011;43147;50.972;18.210;2024-02-21T05:35:52;21.40;;;6.60;;
57297;SDS011;43147;50.972;18.210;2024-02-21T05:38:17;27.70;;;7.10;;
57297;SDS011;43147;50.972;18.210;2024-02-21T05:40:46;28.60;;;7.70;;
57297;SDS011;43147;50.972;18.210;2024-02-21T05:43:12;34.80;;;8.30;;
57297;SDS011;43147;50.972;18.210;2024-02-21T05:45:37;21.20;;;7.00;;
57297;SDS011;43147;50.972;18.210;2024-02-21T05:48:06;15.90;;;6.50;;
57297;SDS011;43147;50.972;18.210;2024-02-21T05:50:31;27.40;;;7.20;;
57297;SDS011;43147;50.972;18.210;2024-02-21T05:52:57;29.10;;;6.80;;
57297;SDS011;43147;50.972;18.210;2024-02-21T05:55:23;19.70;;;7.90;;
57297;SDS011;43147;50.972;18.210;2024-02-21T05:57:48;24.10;;;8.70;;
57297;SDS011;43147;50.972;18.210;2024-02-21T06:00:14;19.70;;;8.10;;
57297;SDS011;43147;50.972;18.210;2024-02-21T06:02:41;16.00;;;7.70;;
57297;SDS011;43147;50.972;18.210;2024-02-21T06:05:07;20.50;;;7.20;;
57297;SDS011;43147;50.972;18.210;2024-02-21T06:07:33;24.30;;;7.30;;
57297;SDS011;43147;50.972;18.210;2024-02-21T06:10:00;22.80;;;7.50;;
57297;SDS011;43147;50.972;18.210;2024-02-21T06:12:26;23.60;;;8.80;;
57297;SDS011;43147;50.972;18.210;2024-02-21T06:14:52;24.00;;;9.10;;
57297;SDS011;43147;50.972;18.210;2024-02-21T06:17:17;27.80;;;8.00;;
57297;SDS011;43147;50.972;18.210;2024-02-21T06:19:43;18.40;;;8.10;;
57297;SDS011;43147;50.972;18.210;2024-02-21T06:22:09;23.20;;;8.00;;
57297;SDS011;43147;50.972;18.210;2024-02-21T06:24:35;41.20;;;10.90;;
57297;SDS011;43147;50.972;18.210;2024-02-21T06:27:02;21.10;;;7.60;;
57297;SDS011;43147;50.972;18.210;2024-02-21T06:29:34;24.30;;;8.20;;
57297;SDS011;43147;50.972;18.210;2024-02-21T06:32:00;23.20;;;9.20;;
57297;SDS011;43147;50.972;18.210;2024-02-21T06:34:26;31.10;;;9.80;;
57297;SDS011;43147;50.972;18.210;2024-02-21T06:36:52;18.60;;;7.70;;
57297;SDS011;43147;50.972;18.210;2024-02-21T06:39:17;23.00;;;9.30;;
57297;SDS011;43147;50.972;18.210;2024-02-21T06:41:43;21.30;;;7.60;;
57297;SDS011;43147;50.972;18.210;2024-02-21T06:44:09;12.90;;;6.70;;
57297;SDS011;43147;50.972;18.210;2024-02-21T06:46:34;29.30;;;10.90;;
57297;SDS011;43147;50.972;18.210;2024-02-21T06:49:00;15.90;;;8.60;;
57297;SDS011;43147;50.972;18.210;2024-02-21T06:51:26;21.70;;;9.00;;
57297;SDS011;43147;50.972;18.210;2024-02-21T06:53:54;27.80;;;9.60;;
57297;SDS011;43147;50.972;18.210;2024-02-21T06:56:20;26.30;;;8.10;;
57297;SDS011;43147;50.972;18.210;2024-02-21T06:58:55;34.60;;;13.10;;
57297;SDS011;43147;50.972;18.210;2024-02-21T07:01:21;96.70;;;25.90;;
57297;SDS011;43147;50.972;18.210;2024-02-21T07:03:46;138.00;;;30.60;;
57297;SDS011;43147;50.972;18.210;2024-02-21T07:06:12;94.60;;;21.90;;
57297;SDS011;43147;50.972;18.210;2024-02-21T07:08:38;71.20;;;17.60;;
57297;SDS011;43147;50.972;18.210;2024-02-21T07:11:04;35.00;;;12.00;;
57297;SDS011;43147;50.972;18.210;2024-02-21T07:13:30;28.80;;;10.10;;
57297;SDS011;43147;50.972;18.210;2024-02-21T07:15:57;23.50;;;8.60;;
57297;SDS011;43147;50.972;18.210;2024-02-21T07:18:22;60.10;;;17.00;;
57297;SDS011;43147;50.972;18.210;2024-02-21T07:20:50;41.50;;;14.40;;
57297;SDS011;43147;50.972;18.210;2024-02-21T07:23:19;27.50;;;8.60;;
57297;SDS011;43147;50.972;18.210;2024-02-21T07:25:44;44.70;;;13.10;;
57297;SDS011;43147;50.972;18.210;2024-02-21T07:28:10;17.50;;;7.70;;
57297;SDS011;43147;50.972;18.210;2024-02-21T07:30:35;22.80;;;7.50;;
57297;SDS011;43147;50.972;18.210;2024-02-21T07:33:01;29.40;;;8.70;;
57297;SDS011;43147;50.972;18.210;2024-02-21T07:35:27;37.80;;;11.00;;
57297;SDS011;43147;50.972;18.210;2024-02-21T07:37:53;59.00;;;20.90;;
57297;SDS011;43147;50.972;18.210;2024-02-21T07:40:19;43.70;;;13.60;;
57297;SDS011;43147;50.972;18.210;2024-02-21T07:42:45;68.80;;;23.90;;
57297;SDS011;43147;50.972;18.210;2024-02-21T07:45:10;28.90;;;10.90;;
57297;SDS011;43147;50.972;18.210;2024-02-21T07:47:36;35.20;;;11.30;;
57297;SDS011;43147;50.972;18.210;2024-02-21T07:50:03;36.00;;;15.20;;
57297;SDS011;43147;50.972;18.210;2024-02-21T07:52:29;35.70;;;14.80;;
57297;SDS011;43147;50.972;18.210;2024-02-21T07:54:54;30.70;;;13.70;;
57297;SDS011;43147;50.972;18.210;2024-02-21T07:57:20;26.80;;;11.90;;
57297;SDS011;43147;50.972;18.210;2024-02-21T07:59:45;27.30;;;12.10;;
57297;SDS011;43147;50.972;18.210;2024-02-21T08:02:15;23.80;;;10.50;;
57297;SDS011;43147;50.972;18.210;2024-02-21T08:04:41;25.00;;;14.60;;
57297;SDS011;43147;50.972;18.210;2024-02-21T08:07:07;57.90;;;25.50;;
57297;SDS011;43147;50.972;18.210;2024-02-21T08:09:33;56.90;;;20.40;;
57297;SDS011;43147;50.972;18.210;2024-02-21T08:11:59;39.70;;;17.80;;
57297;SDS011;43147;50.972;18.210;2024-02-21T08:14:25;52.30;;;18.50;;
57297;SDS011;43147;50.972;18.210;2024-02-21T08:16:51;33.40;;;15.30;;
57297;SDS011;43147;50.972;18.210;2024-02-21T08:19:18;29.00;;;12.30;;
57297;SDS011;43147;50.972;18.210;2024-02-21T08:21:44;22.80;;;9.80;;
57297;SDS011;43147;50.972;18.210;2024-02-21T08:24:12;18.20;;;8.00;;
57297;SDS011;43147;50.972;18.210;2024-02-21T08:26:43;23.20;;;7.80;;
57297;SDS011;43147;50.972;18.210;2024-02-21T08:29:10;22.50;;;12.00;;
57297;SDS011;43147;50.972;18.210;2024-02-21T08:31:37;17.10;;;7.30;;
57297;SDS011;43147;50.972;18.210;2024-02-21T08:34:03;25.00;;;12.70;;
57297;SDS011;43147;50.972;18.210;2024-02-21T08:36:35;17.50;;;8.20;;
57297;SDS011;43147;50.972;18.210;2024-02-21T08:39:02;19.50;;;9.00;;
57297;SDS011;43147;50.972;18.210;2024-02-21T08:41:31;29.40;;;7.50;;
57297;SDS011;43147;50.972;18.210;2024-02-21T08:43:57;38.10;;;12.10;;
57297;SDS011;43147;50.972;18.210;2024-02-21T08:46:23;81.50;;;23.30;;
57297;SDS011;43147;50.972;18.210;2024-02-21T08:48:50;99.20;;;28.10;;
57297;SDS011;43147;50.972;18.210;2024-02-21T08:51:16;64.70;;;24.90;;
57297;SDS011;43147;50.972;18.210;2024-02-21T08:53:43;60.60;;;20.80;;
57297;SDS011;43147;50.972;18.210;2024-02-21T08:56:09;70.10;;;33.00;;
57297;SDS011;43147;50.972;18.210;2024-02-21T08:58:35;33.20;;;19.10;;
57297;SDS011;43147;50.972;18.210;2024-02-21T09:01:04;31.80;;;13.90;;
57297;SDS011;43147;50.972;18.210;2024-02-21T09:03:31;26.20;;;14.50;;
57297;SDS011;43147;50.972;18.210;2024-02-21T09:05:57;30.20;;;16.20;;
57297;SDS011;43147;50.972;18.210;2024-02-21T09:08:24;27.70;;;14.90;;
57297;SDS011;43147;50.972;18.210;2024-02-21T09:10:50;20.60;;;11.60;;
57297;SDS011;43147;50.972;18.210;2024-02-21T09:13:17;18.90;;;12.10;;
57297;SDS011;43147;50.972;18.210;2024-02-21T09:15:42;25.40;;;12.90;;
57297;SDS011;43147;50.972;18.210;2024-02-21T09:18:08;14.30;;;6.80;;
57297;SDS011;43147;50.972;18.210;2024-02-21T09:20:33;16.60;;;6.80;;
57297;SDS011;43147;50.972;18.210;2024-02-21T09:22:59;24.80;;;12.00;;
57297;SDS011;43147;50.972;18.210;2024-02-21T09:25:24;20.30;;;8.00;;
57297;SDS011;43147;50.972;18.210;2024-02-21T09:27:50;20.90;;;11.10;;
57297;SDS011;43147;50.972;18.210;2024-02-21T09:30:17;24.00;;;11.90;;
57297;SDS011;43147;50.972;18.210;2024-02-21T09:32:44;18.80;;;10.90;;
57297;SDS011;43147;50.972;18.210;2024-02-21T09:35:09;21.10;;;6.40;;
57297;SDS011;43147;50.972;18.210;2024-02-21T09:37:35;17.60;;;10.50;;
57297;SDS011;43147;50.972;18.210;2024-02-21T09:40:01;24.00;;;12.20;;
57297;SDS011;43147;50.972;18.210;2024-02-21T09:42:31;25.50;;;11.50;;
57297;SDS011;43147;50.972;18.210;2024-02-21T09:50:49;20.50;;;9.70;;
57297;SDS011;43147;50.972;18.210;2024-02-21T09:53:16;17.50;;;6.60;;
57297;SDS011;43147;50.972;18.210;2024-02-21T09:55:42;18.40;;;7.40;;
57297;SDS011;43147;50.972;18.210;2024-02-21T09:58:08;24.50;;;12.10;;
57297;SDS011;43147;50.972;18.210;2024-02-21T10:00:37;25.30;;;7.60;;
57297;SDS011;43147;50.972;18.210;2024-02-21T10:03:03;31.90;;;10.00;;
57297;SDS011;43147;50.972;18.210;2024-02-21T10:05:33;26.10;;;13.20;;
57297;SDS011;43147;50.972;18.210;2024-02-21T10:08:01;23.90;;;6.90;;
57297;SDS011;43147;50.972;18.210;2024-02-21T10:10:27;22.20;;;6.80;;
57297;SDS011;43147;50.972;18.210;2024-02-21T10:13:10;15.80;;;7.40;;
57297;SDS011;43147;50.972;18.210;2024-02-21T10:15:36;21.40;;;7.60;;
57297;SDS011;43147;50.972;18.210;2024-02-21T10:18:02;26.40;;;12.90;;
57297;SDS011;43147;50.972;18.210;2024-02-21T10:20:32;18.50;;;6.20;;
57297;SDS011;43147;50.972;18.210;2024-02-21T10:23:05;25.80;;;7.00;;
57297;SDS011;43147;50.972;18.210;2024-02-21T10:25:35;17.30;;;6.40;;
57297;SDS011;43147;50.972;18.210;2024-02-21T10:28:02;20.20;;;7.10;;
57297;SDS011;43147;50.972;18.210;2024-02-21T10:30:28;22.10;;;8.20;;
57297;SDS011;43147;50.972;18.210;2024-02-21T10:32:54;28.10;;;7.90;;
57297;SDS011;43147;50.972;18.210;2024-02-21T10:35:30;28.60;;;10.50;;
57297;SDS011;43147;50.972;18.210;2024-02-21T10:37:56;35.20;;;11.40;;
57297;SDS011;43147;50.972;18.210;2024-02-21T10:40:23;24.30;;;11.00;;
57297;SDS011;43147;50.972;18.210;2024-02-21T10:42:56;34.70;;;17.10;;
57297;SDS011;43147;50.972;18.210;2024-02-21T10:45:34;26.90;;;10.20;;
57297;SDS011;43147;50.972;18.210;2024-02-21T10:48:08;29.60;;;10.80;;
57297;SDS011;43147;50.972;18.210;2024-02-21T10:53:32;127.10;;;26.90;;
57297;SDS011;43147;50.972;18.210;2024-02-21T10:56:21;246.70;;;49.30;;
57297;SDS011;43147;50.972;18.210;2024-02-21T10:58:49;104.10;;;25.50;;
57297;SDS011;43147;50.972;18.210;2024-02-21T11:01:15;138.20;;;30.60;;
57297;SDS011;43147;50.972;18.210;2024-02-21T11:03:43;95.30;;;23.40;;
57297;SDS011;43147;50.972;18.210;2024-02-21T11:06:10;125.00;;;29.70;;
57297;SDS011;43147;50.972;18.210;2024-02-21T11:08:36;75.30;;;20.00;;
57297;SDS011;43147;50.972;18.210;2024-02-21T11:11:02;67.90;;;21.90;;
57297;SDS011;43147;50.972;18.210;2024-02-21T11:13:40;38.90;;;12.60;;
57297;SDS011;43147;50.972;18.210;2024-02-21T11:16:20;44.50;;;18.80;;
57297;SDS011;43147;50.972;18.210;2024-02-21T11:18:47;19.70;;;10.60;;
57297;SDS011;43147;50.972;18.210;2024-02-21T11:21:13;15.00;;;6.40;;
57297;SDS011;43147;50.972;18.210;2024-02-21T11:23:38;11.60;;;5.90;;
57297;SDS011;43147;50.972;18.210;2024-02-21T11:26:07;20.10;;;7.50;;
57297;SDS011;43147;50.972;18.210;2024-02-21T11:28:34;24.70;;;13.10;;
57297;SDS011;43147;50.972;18.210;2024-02-21T11:31:11;22.20;;;7.00;;
57297;SDS011;43147;50.972;18.210;2024-02-21T11:33:40;20.80;;;8.10;;
57297;SDS011;43147;50.972;18.210;2024-02-21T11:36:10;22.20;;;7.10;;
57297;SDS011;43147;50.972;18.210;2024-02-21T11:38:36;17.40;;;6.10;;
57297;SDS011;43147;50.972;18.210;2024-02-21T11:41:01;19.10;;;7.50;;
57297;SDS011;43147;50.972;18.210;2024-02-21T11:43:27;19.30;;;6.70;;
57297;SDS011;43147;50.972;18.210;2024-02-21T11:45:59;22.70;;;8.50;;
57297;SDS011;43147;50.972;18.210;2024-02-21T11:48:26;19.80;;;6.80;;
57297;SDS011;43147;50.972;18.210;2024-02-21T11:50:55;24.20;;;7.50;;
57297;SDS011;43147;50.972;18.210;2024-02-21T11:53:21;25.70;;;6.80;;
57297;SDS011;43147;50.972;18.210;2024-02-21T11:55:47;14.40;;;6.90;;
57297;SDS011;43147;50.972;18.210;2024-02-21T11:58:15;22.10;;;8.70;;
57297;SDS011;43147;50.972;18.210;2024-02-21T12:00:41;15.10;;;7.90;;
57297;SDS011;43147;50.972;18.210;2024-02-21T12:03:07;20.10;;;6.40;;
57297;SDS011;43147;50.972;18.210;2024-02-21T12:05:33;14.70;;;7.30;;
57297;SDS011;43147;50.972;18.210;2024-02-21T12:07:59;18.60;;;8.20;;
57297;SDS011;43147;50.972;18.210;2024-02-21T12:10:25;23.20;;;9.20;;
57297;SDS011;43147;50.972;18.210;2024-02-21T12:12:52;16.70;;;8.00;;
57297;SDS011;43147;50.972;18.210;2024-02-21T12:15:20;20.50;;;8.50;;
57297;SDS011;43147;50.972;18.210;2024-02-21T12:17:46;34.90;;;13.80;;
57297;SDS011;43147;50.972;18.210;2024-02-21T12:20:11;31.40;;;11.80;;
57297;SDS011;43147;50.972;18.210;2024-02-21T12:22:41;72.70;;;20.60;;
57297;SDS011;43147;50.972;18.210;2024-02-21T12:25:17;94.20;;;28.60;;
57297;SDS011;43147;50.972;18.210;2024-02-21T12:27:44;92.30;;;31.90;;
57297;SDS011;43147;50.972;18.210;2024-02-21T12:30:10;41.40;;;18.50;;
57297;SDS011;43147;50.972;18.210;2024-02-21T12:32:36;31.90;;;14.30;;
57297;SDS011;43147;50.972;18.210;2024-02-21T12:35:02;20.80;;;9.30;;
57297;SDS011;43147;50.972;18.210;2024-02-21T12:37:28;24.70;;;8.90;;
57297;SDS011;43147;50.972;18.210;2024-02-21T12:39:54;16.80;;;7.60;;
57297;SDS011;43147;50.972;18.210;2024-02-21T12:42:19;21.20;;;7.80;;
57297;SDS011;43147;50.972;18.210;2024-02-21T12:44:48;25.30;;;8.30;;
57297;SDS011;43147;50.972;18.210;2024-02-21T12:47:14;17.00;;;8.40;;
57297;SDS011;43147;50.972;18.210;2024-02-21T12:49:39;20.10;;;8.70;;
57297;SDS011;43147;50.972;18.210;2024-02-21T12:52:05;21.20;;;8.70;;
57297;SDS011;43147;50.972;18.210;2024-02-21T12:54:31;20.60;;;9.00;;
57297;SDS011;43147;50.972;18.210;2024-02-21T12:56:56;21.70;;;8.60;;
57297;SDS011;43147;50.972;18.210;2024-02-21T12:59:22;25.50;;;8.70;;
57297;SDS011;43147;50.972;18.210;2024-02-21T13:01:48;11.50;;;7.70;;
57297;SDS011;43147;50.972;18.210;2024-02-21T13:04:13;46.10;;;14.30;;
57297;SDS011;43147;50.972;18.210;2024-02-21T13:06:39;23.50;;;7.30;;
57297;SDS011;43147;50.972;18.210;2024-02-21T13:09:04;17.70;;;8.20;;
57297;SDS011;43147;50.972;18.210;2024-02-21T13:11:34;26.50;;;9.10;;
57297;SDS011;43147;50.972;18.210;2024-02-21T13:14:00;24.20;;;8.50;;
57297;SDS011;43147;50.972;18.210;2024-02-21T13:16:25;20.50;;;7.80;;
57297;SDS011;43147;50.972;18.210;2024-02-21T13:18:54;18.20;;;8.40;;
57297;SDS011;43147;50.972;18.210;2024-02-21T13:21:19;20.20;;;9.80;;
57297;SDS011;43147;50.972;18.210;2024-02-21T13:23:44;20.80;;;8.90;;
57297;SDS011;43147;50.972;18.210;2024-02-21T13:26:10;18.40;;;8.20;;
57297;SDS011;43147;50.972;18.210;2024-02-21T13:28:36;27.10;;;8.60;;
57297;SDS011;43147;50.972;18.210;2024-02-21T13:31:03;19.90;;;7.60;;
57297;SDS011;43147;50.972;18.210;2024-02-21T13:33:29;19.40;;;8.30;;
57297;SDS011;43147;50.972;18.210;2024-02-21T13:35:55;16.20;;;8.10;;
57297;SDS011;43147;50.972;18.210;2024-02-21T13:38:20;16.80;;;8.30;;
57297;SDS011;43147;50.972;18.210;2024-02-21T13:40:46;27.90;;;9.80;;
57297;SDS011;43147;50.972;18.210;2024-02-21T13:43:12;20.50;;;8.70;;
57297;SDS011;43147;50.972;18.210;2024-02-21T13:45:38;20.30;;;8.80;;
57297;SDS011;43147;50.972;18.210;2024-02-21T13:48:04;21.80;;;8.70;;
57297;SDS011;43147;50.972;18.210;2024-02-21T13:50:31;17.70;;;7.40;;
57297;SDS011;43147;50.972;18.210;2024-02-21T13:52:57;22.30;;;7.80;;
57297;SDS011;43147;50.972;18.210;2024-02-21T13:55:23;13.50;;;7.60;;
57297;SDS011;43147;50.972;18.210;2024-02-21T13:57:52;21.80;;;8.30;;
57297;SDS011;43147;50.972;18.210;2024-02-21T14:00:18;12.20;;;6.90;;
57297;SDS011;43147;50.972;18.210;2024-02-21T14:02:44;16.90;;;7.30;;
57297;SDS011;43147;50.972;18.210;2024-02-21T14:05:10;14.50;;;8.20;;
57297;SDS011;43147;50.972;18.210;2024-02-21T14:07:35;22.60;;;9.00;;
57297;SDS011;43147;50.972;18.210;2024-02-21T14:10:01;13.40;;;8.10;;
57297;SDS011;43147;50.972;18.210;2024-02-21T14:12:28;18.10;;;8.10;;
57297;SDS011;43147;50.972;18.210;2024-02-21T14:14:53;18.20;;;7.90;;
57297;SDS011;43147;50.972;18.210;2024-02-21T14:17:20;20.50;;;8.50;;
57297;SDS011;43147;50.972;18.210;2024-02-21T14:19:47;18.00;;;8.60;;
57297;SDS011;43147;50.972;18.210;2024-02-21T14:22:12;19.50;;;7.80;;